Time;durP1;ratioP1;P1;durP2;ratioP2;P2;SDS_P1;SDS_P2;PMS_P1;PMS_P2;Temp;Humidity;BMP_temperature;BMP_pressure;BME280_temperature;BME280_humidity;BME280_pressure;Samples;Min_cycle;Max_cycle;Signal;HPM_P1;HPM_P2
2022/09/11 00:01:40;;;;;;;27.60;18.30;;;13.80;99.90;;;;;;9860236;30;20499;-82
2022/09/11 00:06:41;;;;;;;25.60;17.05;;;13.80;99.90;;;;;;9843364;30;20389;-83
2022/09/11 00:11:42;;;;;;;29.63;18.75;;;13.80;99.90;;;;;;9861740;30;20050;-83
2022/09/11 00:16:45;;;;;;;31.42;17.75;;;13.80;99.90;;;;;;9844332;30;20040;-82
2022/09/11 00:21:46;;;;;;;28.40;17.13;;;13.80;99.90;;;;;;9858230;30;20370;-83
2022/09/11 00:26:47;;;;;;;30.40;18.45;;;13.70;99.90;;;;;;9858097;30;20071;-83
2022/09/11 00:31:48;;;;;;;26.15;17.25;;;13.70;99.90;;;;;;9861197;30;20122;-83
2022/09/11 00:36:48;;;;;;;30.80;18.27;;;13.70;99.90;;;;;;9843865;30;20039;-82
2022/09/11 00:41:49;;;;;;;28.70;18.75;;;13.70;99.90;;;;;;9859921;30;20054;-83
2022/09/11 00:46:53;;;;;;;32.60;19.42;;;13.70;99.90;;;;;;9858859;30;20062;-83
2022/09/11 00:52:20;;;;;;;30.45;19.13;;;13.70;99.90;;;;;;9859622;30;20028;-83
2022/09/11 00:57:26;;;;;;;33.83;18.20;;;13.80;99.90;;;;;;9850500;30;20044;-83
2022/09/11 01:02:28;;;;;;;;;;;13.80;99.90;;;;;;9858449;30;20043;-82
2022/09/11 01:07:30;;;;;;;56.55;24.92;;;13.80;99.90;;;;;;9858361;30;20016;-82
2022/09/11 01:12:48;;;;;;;47.88;24.10;;;13.80;99.90;;;;;;9860164;30;20126;-83
2022/09/11 01:18:27;;;;;;;42.80;21.95;;;13.80;99.90;;;;;;9859036;30;20101;-83
2022/09/11 01:24:07;;;;;;;42.83;21.67;;;13.90;99.90;;;;;;9794585;30;20058;-83
2022/09/11 01:29:33;;;;;;;39.42;21.70;;;13.90;99.90;;;;;;9842278;30;20079;-82
2022/09/11 01:34:43;;;;;;;27.35;16.52;;;13.90;99.90;;;;;;9838969;30;20124;-81
2022/09/11 01:39:57;;;;;;;26.15;16.50;;;13.80;99.90;;;;;;9852507;30;20050;-81
2022/09/11 01:44:58;;;;;;;22.55;14.05;;;13.90;99.90;;;;;;9859112;30;20052;-81
2022/09/11 01:50:07;;;;;;;25.42;15.13;;;13.90;99.90;;;;;;9858256;30;20032;-82
2022/09/11 01:55:19;;;;;;;25.02;14.75;;;13.80;99.90;;;;;;9865378;30;20190;-82
2022/09/11 02:00:19;;;;;;;25.10;15.63;;;13.80;99.90;;;;;;9865692;30;20051;-81
2022/09/11 02:05:36;;;;;;;29.10;16.80;;;13.80;99.90;;;;;;9861185;30;20059;-81
2022/09/11 02:10:50;;;;;;;28.02;17.33;;;13.80;99.90;;;;;;9860890;30;20106;-81
2022/09/11 02:15:57;;;;;;;25.02;14.90;;;13.60;99.90;;;;;;9845743;30;20031;-81
2022/09/11 02:20:57;;;;;;;20.25;13.63;;;13.60;99.90;;;;;;9865308;30;20036;-81
2022/09/11 02:25:58;;;;;;;20.98;14.68;;;13.50;99.90;;;;;;9864895;30;20381;-81
2022/09/11 02:30:59;;;;;;;22.90;13.68;;;13.40;99.90;;;;;;9848468;30;20509;-81
2022/09/11 02:36:28;;;;;;;24.98;13.02;;;13.40;99.90;;;;;;9864281;30;20038;-81
2022/09/11 02:41:59;;;;;;;17.95;12.32;;;13.30;99.90;;;;;;9830227;30;20052;-81
2022/09/11 02:47:04;;;;;;;20.38;11.98;;;13.40;99.90;;;;;;9846069;30;20055;-81
2022/09/11 02:52:26;;;;;;;;;;;13.40;99.90;;;;;;9864702;30;20041;-81
2022/09/11 02:57:36;;;;;;;20.48;13.40;;;13.40;99.90;;;;;;9863059;30;20069;-81
2022/09/11 03:02:40;;;;;;;22.73;13.98;;;13.30;99.90;;;;;;9860303;30;20051;-81
2022/09/11 03:07:41;;;;;;;22.00;15.13;;;13.30;99.90;;;;;;9859067;30;20039;-81
2022/09/11 03:12:41;;;;;;;26.25;15.02;;;13.30;99.90;;;;;;9863385;30;20059;-81
2022/09/11 03:17:42;;;;;;;21.80;14.45;;;13.30;99.90;;;;;;9862223;30;20119;-82
2022/09/11 03:22:42;;;;;;;23.65;14.10;;;13.30;99.90;;;;;;9862232;30;20063;-81
2022/09/11 03:27:43;;;;;;;26.30;16.20;;;13.40;99.90;;;;;;9863827;30;20595;-81
2022/09/11 03:32:44;;;;;;;27.77;16.30;;;13.40;99.90;;;;;;9861750;30;20431;-81
2022/09/11 03:37:45;;;;;;;27.52;16.48;;;13.50;99.90;;;;;;9862083;30;20119;-81
2022/09/11 03:42:46;;;;;;;31.98;17.95;;;13.50;99.90;;;;;;9861914;30;20043;-82
2022/09/11 03:47:47;;;;;;;35.40;20.10;;;13.50;99.90;;;;;;9860345;30;20068;-81
2022/09/11 03:52:48;;;;;;;40.15;20.95;;;13.60;99.90;;;;;;9861887;30;20031;-82
2022/09/11 03:57:49;;;;;;;40.88;21.73;;;13.60;99.90;;;;;;9862014;30;20400;-81
2022/09/11 04:02:50;;;;;;;43.95;23.15;;;13.60;99.90;;;;;;9845059;30;20051;-83
2022/09/11 04:07:51;;;;;;;43.05;24.10;;;13.60;99.90;;;;;;9859957;30;20146;-83
2022/09/11 04:12:52;;;;;;;43.28;22.67;;;13.70;99.90;;;;;;9861828;30;20048;-81
2022/09/11 04:17:52;;;;;;;47.92;23.90;;;13.70;99.90;;;;;;9860858;30;20051;-81
2022/09/11 04:22:54;;;;;;;52.63;24.98;;;13.60;99.90;;;;;;9857525;30;20050;-81
2022/09/11 04:27:55;;;;;;;51.47;26.48;;;13.60;99.90;;;;;;9861501;30;20508;-81
2022/09/11 04:32:56;;;;;;;51.30;24.52;;;13.70;99.90;;;;;;9857168;30;20047;-81
2022/09/11 04:37:57;;;;;;;41.00;23.00;;;13.80;99.90;;;;;;9855830;30;20475;-81
2022/09/11 04:42:57;;;;;;;38.72;23.13;;;13.80;99.90;;;;;;9860450;30;20484;-81
2022/09/11 04:48:01;;;;;;;42.75;24.42;;;13.80;99.90;;;;;;9857888;30;20464;-81
2022/09/11 04:53:03;;;;;;;38.50;23.00;;;13.90;99.90;;;;;;9859488;30;20054;-81
2022/09/11 04:58:04;;;;;;;38.55;23.92;;;13.90;99.90;;;;;;9859897;30;20571;-81
2022/09/11 05:03:05;;;;;;;36.15;22.40;;;13.90;99.90;;;;;;9860445;30;20106;-81
2022/09/11 05:08:07;;;;;;;32.42;20.70;;;14.00;99.90;;;;;;9857497;30;20042;-82
2022/09/11 05:13:08;;;;;;;29.35;19.70;;;14.00;99.90;;;;;;9859991;30;20174;-80
2022/09/11 05:18:10;;;;;;;31.52;20.02;;;13.90;99.90;;;;;;9857322;30;20063;-81
2022/09/11 05:23:11;;;;;;;31.67;19.50;;;13.90;99.90;;;;;;9857753;30;20051;-80
2022/09/11 05:28:12;;;;;;;33.63;19.63;;;14.00;99.90;;;;;;9863861;30;20042;-81
2022/09/11 05:33:12;;;;;;;32.40;18.75;;;14.00;99.90;;;;;;9866686;30;20428;-81
2022/09/11 05:38:13;;;;;;;31.05;19.83;;;14.00;99.90;;;;;;9862691;30;20046;-81
2022/09/11 05:43:14;;;;;;;26.45;19.08;;;14.20;99.90;;;;;;9866497;30;20131;-81
2022/09/11 05:48:15;;;;;;;28.00;17.77;;;14.30;99.90;;;;;;9862008;30;20413;-82
2022/09/11 05:53:16;;;;;;;27.33;17.63;;;14.30;99.90;;;;;;9860756;30;20031;-81
2022/09/11 05:58:17;;;;;;;23.52;16.30;;;14.30;99.90;;;;;;9866865;30;20052;-81
2022/09/11 06:03:18;;;;;;;26.58;16.38;;;14.30;99.90;;;;;;9861950;30;20054;-81
2022/09/11 06:08:18;;;;;;;26.95;17.48;;;14.30;99.90;;;;;;9866730;30;20477;-81
2022/09/11 06:13:19;;;;;;;25.58;17.88;;;14.40;99.90;;;;;;9865546;30;20036;-81
2022/09/11 06:18:19;;;;;;;26.70;18.58;;;14.40;99.90;;;;;;9864212;30;20362;-80
2022/09/11 06:23:20;;;;;;;28.40;18.95;;;14.50;99.90;;;;;;9861842;30;20058;-81
2022/09/11 06:28:22;;;;;;;27.90;20.38;;;14.50;99.90;;;;;;9864330;30;20510;-80
2022/09/11 06:33:22;;;;;;;31.73;20.10;;;14.50;99.90;;;;;;9861729;30;20481;-82
2022/09/11 06:38:24;;;;;;;29.60;19.75;;;14.40;99.90;;;;;;9863035;30;20031;-82
2022/09/11 06:43:26;;;;;;;29.83;19.80;;;14.40;99.90;;;;;;9863864;30;20044;-84
2022/09/11 06:48:27;;;;;;;25.83;17.75;;;14.50;99.90;;;;;;9860027;30;20113;-82
2022/09/11 06:53:27;;;;;;;26.98;19.13;;;14.50;99.90;;;;;;9862772;30;20058;-82
2022/09/11 06:58:28;;;;;;;24.10;17.30;;;14.50;99.90;;;;;;9848616;30;20032;-82
2022/09/11 07:03:29;;;;;;;29.48;19.70;;;14.40;99.90;;;;;;9842549;30;20047;-83
2022/09/11 07:08:30;;;;;;;30.52;19.95;;;14.40;99.90;;;;;;9861478;30;20044;-83
2022/09/11 07:13:31;;;;;;;27.95;19.13;;;14.40;99.90;;;;;;9863990;30;20055;-82
2022/09/11 07:18:36;;;;;;;26.42;16.95;;;14.40;99.90;;;;;;9844772;30;20071;-84
2022/09/11 07:23:38;;;;;;;17.60;12.38;;;14.60;99.90;;;;;;9855439;30;20059;-86
2022/09/11 07:28:39;;;;;;;13.35;9.90;;;14.70;99.90;;;;;;9846498;30;20067;-84
2022/09/11 07:33:44;;;;;;;14.05;9.25;;;14.90;99.90;;;;;;9846936;30;20505;-84
2022/09/11 07:38:50;;;;;;;12.70;9.02;;;14.90;99.90;;;;;;9862711;30;20047;-87
2022/09/11 07:44:05;;;;;;;10.90;7.97;;;15.00;99.90;;;;;;9845419;30;20052;-85
2022/09/11 07:49:08;;;;;;;11.95;8.30;;;15.00;99.90;;;;;;9842912;30;20063;-85
2022/09/11 07:54:09;;;;;;;9.30;7.38;;;15.00;99.90;;;;;;9844100;30;20042;-84
2022/09/11 07:59:10;;;;;;;8.13;7.13;;;15.30;99.90;;;;;;9861030;30;20044;-85
2022/09/11 08:04:13;;;;;;;6.55;5.75;;;15.50;99.90;;;;;;9856806;30;20126;-85
2022/09/11 08:09:14;;;;;;;7.50;5.88;;;15.80;99.90;;;;;;9861707;30;20036;-85
2022/09/11 08:14:16;;;;;;;5.85;5.30;;;15.90;99.90;;;;;;9849729;30;20046;-86
2022/09/11 08:19:20;;;;;;;5.13;4.55;;;16.10;99.90;;;;;;9858423;30;20047;-86
2022/09/11 08:24:21;;;;;;;4.20;3.85;;;16.20;99.90;;;;;;9856741;30;20073;-84
2022/09/11 08:29:23;;;;;;;4.40;4.00;;;16.50;99.90;;;;;;9843984;30;20038;-84
2022/09/11 08:34:23;;;;;;;4.10;3.70;;;16.80;99.90;;;;;;9857604;30;20404;-84
2022/09/11 08:39:24;;;;;;;3.70;3.40;;;17.00;99.90;;;;;;9856458;30;20044;-84
2022/09/11 08:44:30;;;;;;;4.28;3.72;;;16.80;99.90;;;;;;9863997;30;20035;-84
2022/09/11 08:49:38;;;;;;;4.20;3.80;;;16.60;99.90;;;;;;9857468;30;20624;-85
2022/09/11 08:54:40;;;;;;;4.90;3.70;;;16.40;99.90;;;;;;9844152;30;20070;-83
2022/09/11 08:59:55;;;;;;;6.47;4.60;;;16.40;99.90;;;;;;9842914;30;20059;-84
2022/09/11 09:05:08;;;;;;;5.73;4.83;;;16.40;99.90;;;;;;9855906;30;20040;-84
2022/09/11 09:10:20;;;;;;;5.47;4.55;;;16.40;99.90;;;;;;9840091;30;20040;-84
2022/09/11 09:15:31;;;;;;;5.15;4.30;;;16.30;99.90;;;;;;9858715;30;20040;-84
2022/09/11 09:20:37;;;;;;;4.32;3.92;;;16.30;99.90;;;;;;9839309;30;20070;-84
2022/09/11 09:25:41;;;;;;;4.85;4.35;;;16.60;99.90;;;;;;9843930;30;20174;-83
2022/09/11 09:30:57;;;;;;;4.78;4.25;;;16.80;99.90;;;;;;9842511;30;20120;-84
2022/09/11 09:36:12;;;;;;;5.78;4.38;;;17.20;99.90;;;;;;9861134;30;20039;-84
2022/09/11 09:41:16;;;;;;;;;;;17.40;99.90;;;;;;9853778;30;20129;-83
2022/09/11 09:46:40;;;;;;;6.28;4.90;;;17.30;99.90;;;;;;9857237;30;19936;-82
2022/09/11 09:51:41;;;;;;;5.43;4.38;;;17.40;99.90;;;;;;9835584;30;20127;-84
2022/09/11 09:56:48;;;;;;;5.70;4.05;;;17.40;99.90;;;;;;9861790;30;20048;-82
2022/09/11 10:01:50;;;;;;;6.63;4.85;;;17.20;99.90;;;;;;9856992;30;20132;-83
2022/09/11 10:07:07;;;;;;;8.70;5.35;;;17.10;99.90;;;;;;9842942;30;20039;-82
2022/09/11 10:12:19;;;;;;;6.85;5.28;;;17.10;99.90;;;;;;9853478;30;20114;-82
2022/09/11 10:17:30;;;;;;;5.45;4.63;;;16.80;99.90;;;;;;9846633;30;20036;-85
2022/09/11 10:22:31;;;;;;;6.90;5.28;;;16.50;99.90;;;;;;9850969;30;20036;-85
2022/09/11 10:27:39;;;;;;;9.57;5.70;;;16.40;99.90;;;;;;9848957;30;20096;-84
2022/09/11 10:32:41;;;;;;;7.28;5.53;;;16.40;99.90;;;;;;9864805;30;20168;-82
2022/09/11 10:37:42;;;;;;;9.23;7.40;;;16.50;99.90;;;;;;9841777;30;20093;-83
2022/09/11 10:42:45;;;;;;;9.45;7.50;;;16.40;99.90;;;;;;9860767;30;20097;-84
2022/09/11 10:47:45;;;;;;;9.80;7.07;;;16.50;99.90;;;;;;9849439;30;20056;-83
2022/09/11 10:53:02;;;;;;;8.98;6.82;;;16.20;99.90;;;;;;9838536;30;20533;-84
2022/09/11 10:58:22;;;;;;;8.23;6.18;;;16.00;99.90;;;;;;9846723;30;20139;-83
2022/09/11 11:03:27;;;;;;;9.10;6.70;;;15.80;99.90;;;;;;9866240;30;20563;-84
2022/09/11 11:08:47;;;;;;;9.33;7.30;;;15.50;99.90;;;;;;9858947;30;20742;-83
2022/09/11 11:13:54;;;;;;;8.43;6.75;;;15.50;99.90;;;;;;9863495;30;20278;-84
2022/09/11 11:19:05;;;;;;;10.87;8.00;;;15.50;99.90;;;;;;9844878;30;20118;-85
2022/09/11 11:24:20;;;;;;;8.02;6.80;;;15.70;99.90;;;;;;9845863;30;20519;-84
2022/09/11 11:29:44;;;;;;;7.22;6.43;;;16.40;99.90;;;;;;9846380;30;20042;-83
2022/09/11 11:34:54;;;;;;;8.15;6.32;;;16.80;99.90;;;;;;9856527;30;20056;-84
2022/09/11 11:40:20;;;;;;;4.85;4.45;;;17.50;99.90;;;;;;9849681;30;20048;-84
2022/09/11 11:45:22;;;;;;;4.55;3.42;;;17.80;99.90;;;;;;9853972;30;20064;-84
2022/09/11 11:50:25;;;;;;;3.92;3.58;;;18.00;99.90;;;;;;9835742;30;20400;-83
2022/09/11 11:55:37;;;;;;;4.20;3.75;;;17.70;99.90;;;;;;9841921;30;20115;-84
2022/09/11 12:00:44;;;;;;;3.65;3.35;;;17.40;99.90;;;;;;9852443;30;20032;-83
2022/09/11 12:05:45;;;;;;;3.67;3.38;;;17.50;99.90;;;;;;9860255;30;20047;-84
2022/09/11 12:11:00;;;;;;;3.45;2.90;;;17.30;99.90;;;;;;9859107;30;20050;-83
2022/09/11 12:16:13;;;;;;;3.55;3.25;;;17.30;99.90;;;;;;9851305;30;20448;-82
2022/09/11 12:21:23;;;;;;;3.75;3.30;;;17.10;99.90;;;;;;9858142;30;20050;-83
2022/09/11 12:26:26;;;;;;;3.30;3.00;;;17.00;99.90;;;;;;9859758;30;20047;-82
2022/09/11 12:31:49;;;;;;;3.40;3.10;;;17.40;99.90;;;;;;9860071;30;20036;-82
2022/09/11 12:36:59;;;;;;;3.78;3.30;;;17.50;99.90;;;;;;9859759;30;20676;-83
2022/09/11 12:42:21;;;;;;;4.15;3.70;;;17.20;99.90;;;;;;9856000;30;20039;-83
2022/09/11 12:47:28;;;;;;;3.60;3.17;;;17.30;99.90;;;;;;9856916;30;20122;-82
2022/09/11 12:52:38;;;;;;;4.00;3.38;;;17.40;99.90;;;;;;9842545;30;20024;-83
2022/09/11 12:57:39;;;;;;;4.18;3.78;;;17.20;99.90;;;;;;9854713;30;20047;-84
2022/09/11 13:02:43;;;;;;;4.75;3.42;;;17.00;99.90;;;;;;9840440;30;20055;-81
2022/09/11 13:07:52;;;;;;;4.75;3.65;;;17.00;99.90;;;;;;9847836;30;20040;-84
2022/09/11 13:12:54;;;;;;;5.15;3.85;;;17.10;99.90;;;;;;9847625;30;20048;-84
2022/09/11 13:17:55;;;;;;;5.47;3.75;;;17.30;99.90;;;;;;9858261;30;20043;-84
2022/09/11 13:23:11;;;;;;;4.63;3.58;;;17.40;99.90;;;;;;9859018;30;20036;-83
2022/09/11 13:28:14;;;;;;;5.63;3.90;;;17.50;99.90;;;;;;9839746;30;20067;-83
2022/09/11 13:33:22;;;;;;;4.18;3.00;;;17.70;99.90;;;;;;9828481;30;20066;-83
2022/09/11 13:38:29;;;;;;;3.17;2.88;;;18.00;99.90;;;;;;9847336;30;20110;-83
2022/09/11 13:43:38;;;;;;;3.03;2.70;;;18.10;99.90;;;;;;9842389;30;20090;-84
2022/09/11 13:48:39;;;;;;;3.53;3.17;;;18.00;99.90;;;;;;9845617;30;20071;-82
2022/09/11 13:53:42;;;;;;;3.67;3.22;;;17.60;99.90;;;;;;9849598;30;20519;-83
2022/09/11 13:58:43;;;;;;;8.30;4.97;;;17.30;99.90;;;;;;9844303;30;20040;-84
2022/09/11 14:03:46;;;;;;;5.00;4.50;;;16.90;99.90;;;;;;9862129;30;20100;-84
2022/09/11 14:08:54;;;;;;;8.77;5.50;;;16.20;99.90;;;;;;9863857;30;20040;-84
2022/09/11 14:13:59;;;;;;;10.25;6.57;;;15.60;99.90;;;;;;9864367;30;20044;-85
2022/09/11 14:19:15;;;;;;;9.73;6.50;;;15.30;99.90;;;;;;9863544;30;20088;-84
2022/09/11 14:24:25;;;;;;;13.15;7.85;;;15.00;99.90;;;;;;9861951;30;20427;-84
2022/09/11 14:29:31;;;;;;;18.27;8.63;;;14.70;99.90;;;;;;9864546;30;20454;-81
2022/09/11 14:34:32;;;;;;;20.75;10.10;;;14.50;99.90;;;;;;9846547;30;20409;-82
2022/09/11 14:39:35;;;;;;;25.30;12.35;;;14.30;99.90;;;;;;9862699;30;20055;-83
2022/09/11 14:44:39;;;;;;;24.67;12.02;;;14.20;99.90;;;;;;9864124;30;20393;-82
2022/09/11 14:49:40;;;;;;;22.38;11.88;;;13.90;99.90;;;;;;9861842;30;20170;-85
2022/09/11 14:54:41;;;;;;;24.83;12.43;;;13.90;99.90;;;;;;9863350;30;20638;-82
2022/09/11 14:59:41;;;;;;;27.42;14.63;;;13.80;99.90;;;;;;9862700;30;20040;-83
2022/09/11 15:04:42;;;;;;;22.17;13.13;;;13.90;99.90;;;;;;9863233;30;20035;-84
2022/09/11 15:09:43;;;;;;;22.05;12.43;;;13.80;99.90;;;;;;9859968;30;20503;-83
2022/09/11 15:14:44;;;;;;;21.85;12.27;;;13.90;99.90;;;;;;9848546;30;20054;-84
2022/09/11 15:19:46;;;;;;;19.70;12.18;;;14.20;99.90;;;;;;9856962;30;20054;-82
2022/09/11 15:24:48;;;;;;;22.27;11.50;;;14.30;99.90;;;;;;9860818;30;20055;-82
2022/09/11 15:29:49;;;;;;;20.02;11.35;;;14.40;99.90;;;;;;9860620;30;20063;-82
2022/09/11 15:34:50;;;;;;;18.92;11.13;;;14.40;99.90;;;;;;9860641;30;20047;-82
2022/09/11 15:39:51;;;;;;;23.85;12.65;;;14.50;99.90;;;;;;9862073;30;20039;-82
2022/09/11 15:44:52;;;;;;;20.30;10.95;;;14.40;99.90;;;;;;9861944;30;20597;-83
2022/09/11 15:49:52;;;;;;;21.25;11.55;;;14.40;99.90;;;;;;9861245;30;20051;-83
2022/09/11 15:54:53;;;;;;;26.13;14.25;;;14.40;99.90;;;;;;9841575;30;20587;-83
2022/09/11 15:59:54;;;;;;;20.58;11.00;;;14.40;99.90;;;;;;9861978;30;20047;-83
2022/09/11 16:04:54;;;;;;;20.58;11.88;;;14.40;99.90;;;;;;9858462;30;20043;-83
2022/09/11 16:09:55;;;;;;;18.63;10.75;;;14.30;99.90;;;;;;9857881;30;20028;-83
2022/09/11 16:14:56;;;;;;;16.63;10.80;;;14.30;99.90;;;;;;9842522;30;20036;-84
2022/09/11 16:19:57;;;;;;;19.60;10.68;;;14.30;99.90;;;;;;9843409;30;20036;-83
2022/09/11 16:24:58;;;;;;;17.23;9.75;;;14.20;99.90;;;;;;9844121;30;20397;-83
2022/09/11 16:29:59;;;;;;;19.85;10.68;;;14.20;99.90;;;;;;9859421;30;20035;-83
2022/09/11 16:34:59;;;;;;;19.45;10.75;;;14.20;99.90;;;;;;9856621;30;20405;-82
2022/09/11 16:40:01;;;;;;;21.25;11.07;;;14.20;99.90;;;;;;9842546;30;20035;-83
2022/09/11 16:45:02;;;;;;;17.95;9.57;;;14.10;99.90;;;;;;9861156;30;20062;-82
2022/09/11 16:50:04;;;;;;;16.30;9.43;;;14.10;99.90;;;;;;9841533;30;20046;-82
2022/09/11 16:55:08;;;;;;;15.52;9.38;;;14.00;99.90;;;;;;9849937;30;20040;-82
2022/09/11 17:00:10;;;;;;;14.52;7.57;;;13.90;99.90;;;;;;9842598;30;20048;-83
2022/09/11 17:05:11;;;;;;;13.88;8.15;;;13.80;99.90;;;;;;9839643;30;20067;-82
2022/09/11 17:10:12;;;;;;;14.85;9.13;;;13.70;99.90;;;;;;9842440;30;20587;-82
2022/09/11 17:15:12;;;;;;;17.73;8.65;;;13.60;99.90;;;;;;9856636;30;20036;-83
2022/09/11 17:20:14;;;;;;;17.23;9.70;;;13.60;99.90;;;;;;9855043;30;20627;-83
2022/09/11 17:25:15;;;;;;;19.52;10.60;;;13.60;99.90;;;;;;9861846;30;20151;-83
2022/09/11 17:30:17;;;;;;;19.75;11.13;;;13.60;99.90;;;;;;9863511;30;20236;-83
2022/09/11 17:35:17;;;;;;;15.30;9.55;;;13.60;99.90;;;;;;9863951;30;20668;-83
2022/09/11 17:40:18;;;;;;;17.45;10.52;;;13.60;99.90;;;;;;9865512;30;20040;-83
2022/09/11 17:45:19;;;;;;;18.45;10.85;;;13.60;99.90;;;;;;9867010;30;20351;-83
2022/09/11 17:50:20;;;;;;;19.58;11.10;;;13.60;99.90;;;;;;9867527;30;20130;-83
2022/09/11 17:55:21;;;;;;;18.73;10.02;;;13.60;99.90;;;;;;9865134;30;20092;-83
2022/09/11 18:00:22;;;;;;;15.40;9.38;;;13.60;99.90;;;;;;9848276;30;20083;-83
2022/09/11 18:05:23;;;;;;;15.50;8.82;;;13.60;99.90;;;;;;9862717;30;20471;-84
2022/09/11 18:10:27;;;;;;;19.55;9.45;;;13.60;99.90;;;;;;9863823;30;20534;-84
2022/09/11 18:15:28;;;;;;;20.00;9.30;;;13.60;99.90;;;;;;9864303;30;20063;-83
2022/09/11 18:20:29;;;;;;;12.93;8.05;;;13.50;99.90;;;;;;9848650;30;20142;-84
2022/09/11 18:25:35;;;;;;;13.48;8.32;;;13.40;99.90;;;;;;9864862;30;20036;-83
2022/09/11 18:30:40;;;;;;;14.93;7.45;;;13.30;99.90;;;;;;9848827;30;20181;-84
2022/09/11 18:35:42;;;;;;;13.60;8.43;;;13.20;99.90;;;;;;9859725;30;20031;-84
2022/09/11 18:40:42;;;;;;;14.23;8.77;;;13.20;99.90;;;;;;9863019;30;20050;-84
2022/09/11 18:45:44;;;;;;;15.48;9.13;;;13.20;99.90;;;;;;9862576;30;20087;-83
2022/09/11 18:50:45;;;;;;;14.25;8.23;;;13.10;99.90;;;;;;9857874;30;20043;-83
2022/09/11 18:55:46;;;;;;;15.23;8.52;;;13.10;99.90;;;;;;9849385;30;20515;-83
2022/09/11 19:00:46;;;;;;;13.45;8.35;;;13.10;99.90;;;;;;9848437;30;20063;-82
2022/09/11 19:05:49;;;;;;;14.40;8.20;;;13.10;99.90;;;;;;9847822;30;20031;-84
2022/09/11 19:10:50;;;;;;;14.45;8.80;;;13.10;99.90;;;;;;9851426;30;20405;-83
2022/09/11 19:15:55;;;;;;;17.67;9.77;;;13.00;99.90;;;;;;9854074;30;20028;-84
2022/09/11 19:21:08;;;;;;;11.32;6.93;;;12.90;99.90;;;;;;9856480;30;20039;-83
2022/09/11 19:26:15;;;;;;;11.35;6.95;;;12.90;99.90;;;;;;9860363;30;20024;-82
2022/09/11 19:31:28;;;;;;;15.23;7.60;;;12.80;99.90;;;;;;9860219;30;20151;-84
2022/09/11 19:36:32;;;;;;;14.00;8.13;;;12.80;99.90;;;;;;9859070;30;20071;-84
2022/09/11 19:41:38;;;;;;;13.55;7.47;;;12.70;99.90;;;;;;9837987;30;20044;-84
2022/09/11 19:46:40;;;;;;;14.57;7.18;;;12.70;99.90;;;;;;9851036;30;20063;-84
2022/09/11 19:51:41;;;;;;;11.60;7.82;;;12.70;99.90;;;;;;9838307;30;20071;-83
2022/09/11 19:56:43;;;;;;;15.23;8.20;;;12.70;99.90;;;;;;9849787;30;20039;-84
2022/09/11 20:01:44;;;;;;;16.25;9.85;;;12.60;99.90;;;;;;9859665;30;20055;-84
2022/09/11 20:06:45;;;;;;;18.65;9.43;;;12.60;99.90;;;;;;9847755;30;20421;-84
2022/09/11 20:11:45;;;;;;;13.82;8.52;;;12.50;99.90;;;;;;9844783;30;20501;-84
2022/09/11 20:16:46;;;;;;;16.58;9.50;;;12.40;99.90;;;;;;9827166;30;20031;-84
2022/09/11 20:21:46;;;;;;;20.13;10.32;;;12.40;99.90;;;;;;9847260;30;20374;-84
2022/09/11 20:26:47;;;;;;;15.75;9.20;;;12.40;99.90;;;;;;9842489;30;20393;-84
2022/09/11 20:31:49;;;;;;;15.25;9.48;;;12.30;99.90;;;;;;9843280;30;20574;-84
2022/09/11 20:36:51;;;;;;;16.90;9.90;;;12.30;99.90;;;;;;9841702;30;20048;-83
2022/09/11 20:41:52;;;;;;;22.38;11.75;;;12.20;99.90;;;;;;9839909;30;20043;-84
2022/09/11 20:46:52;;;;;;;20.08;10.43;;;12.20;99.90;;;;;;9852942;30;20396;-84
2022/09/11 20:51:53;;;;;;;21.67;11.85;;;12.10;99.90;;;;;;9825577;30;20038;-81
2022/09/11 20:56:53;;;;;;;17.95;10.50;;;12.10;99.90;;;;;;9841978;30;20111;-83
2022/09/11 21:01:54;;;;;;;19.42;11.55;;;12.00;99.90;;;;;;9828907;30;20614;-83
2022/09/11 21:06:54;;;;;;;21.60;11.82;;;12.00;99.90;;;;;;9825878;30;20048;-83
2022/09/11 21:11:55;;;;;;;23.48;12.20;;;11.80;99.90;;;;;;9837252;30;20036;-82
2022/09/11 21:16:56;;;;;;;23.10;11.75;;;11.90;99.90;;;;;;9836585;30;20044;-82
2022/09/11 21:21:56;;;;;;;26.88;12.93;;;11.80;99.90;;;;;;9821305;30;20407;-83
2022/09/11 21:26:57;;;;;;;28.50;14.65;;;11.80;99.90;;;;;;9835063;30;20470;-83
2022/09/11 21:31:57;;;;;;;33.50;15.48;;;11.80;99.90;;;;;;9844564;30;20051;-83
2022/09/11 21:36:58;;;;;;;29.27;14.50;;;11.80;99.90;;;;;;9830890;30;20392;-83
2022/09/11 21:41:58;;;;;;;28.60;13.70;;;11.80;99.90;;;;;;9843495;30;20509;-83
2022/09/11 21:46:59;;;;;;;29.33;13.95;;;11.80;99.90;;;;;;9843206;30;20659;-83
2022/09/11 21:52:00;;;;;;;31.15;15.60;;;11.80;99.90;;;;;;9841558;30;20058;-83
2022/09/11 21:57:00;;;;;;;27.80;14.40;;;11.90;99.90;;;;;;9836732;30;20134;-83
2022/09/11 22:02:01;;;;;;;26.58;14.60;;;11.90;99.90;;;;;;9846397;30;20615;-83
2022/09/11 22:07:01;;;;;;;26.65;13.75;;;12.00;99.90;;;;;;9845332;30;20512;-83
2022/09/11 22:12:02;;;;;;;26.90;13.55;;;12.10;99.90;;;;;;9839033;30;20055;-83
2022/09/11 22:17:03;;;;;;;31.27;13.82;;;12.20;99.90;;;;;;9835658;30;20056;-83
2022/09/11 22:22:05;;;;;;;29.88;14.43;;;12.20;99.90;;;;;;9851526;30;20390;-84
2022/09/11 22:27:08;;;;;;;32.83;15.48;;;12.20;99.90;;;;;;9854953;30;20444;-83
2022/09/11 22:32:09;;;;;;;34.75;16.38;;;12.20;99.90;;;;;;9856647;30;20798;-83
2022/09/11 22:37:10;;;;;;;39.17;17.65;;;12.20;99.90;;;;;;9862866;30;20036;-83
2022/09/11 22:42:10;;;;;;;37.88;18.13;;;12.20;99.90;;;;;;9864983;30;20501;-84
2022/09/11 22:47:11;;;;;;;42.50;20.50;;;12.20;99.90;;;;;;9864258;30;20307;-84
2022/09/11 22:52:11;;;;;;;43.70;19.45;;;12.20;99.90;;;;;;9864566;30;20031;-83
2022/09/11 22:57:12;;;;;;;38.60;19.90;;;12.20;99.90;;;;;;9864384;30;20043;-83
2022/09/11 23:02:13;;;;;;;44.72;21.77;;;12.20;99.90;;;;;;9847833;30;20048;-83
2022/09/11 23:07:14;;;;;;;50.47;22.75;;;12.30;99.90;;;;;;9847952;30;20130;-83
2022/09/11 23:12:15;;;;;;;48.70;22.85;;;12.20;99.90;;;;;;9863802;30;20109;-83
2022/09/11 23:17:16;;;;;;;42.10;23.20;;;12.30;99.90;;;;;;9859309;30;20467;-83
2022/09/11 23:22:16;;;;;;;41.70;20.25;;;12.30;99.90;;;;;;9859583;30;20052;-83
2022/09/11 23:27:17;;;;;;;48.47;22.88;;;12.20;99.90;;;;;;9862401;30;20634;-83
2022/09/11 23:32:17;;;;;;;53.22;25.10;;;12.20;99.90;;;;;;9862751;30;20038;-83
2022/09/11 23:37:18;;;;;;;47.00;23.02;;;12.20;99.90;;;;;;9861637;30;20035;-83
2022/09/11 23:42:18;;;;;;;46.42;23.88;;;12.20;99.90;;;;;;9863671;30;20051;-83
2022/09/11 23:47:19;;;;;;;45.67;24.10;;;12.20;99.90;;;;;;9845823;30;20143;-83
2022/09/11 23:52:19;;;;;;;48.58;23.65;;;12.30;99.90;;;;;;9860487;30;20035;-83
2022/09/11 23:57:21;;;;;;;43.05;21.83;;;12.30;99.90;;;;;;9862996;30;20040;-83
